createdAt,value
2023-05-19T00:00:48.991Z,2.00
2023-05-19T00:01:55.236Z,2.33
2023-05-19T00:02:58.509Z,1.90
2023-05-19T00:04:05.568Z,2.00
2023-05-19T00:05:10.573Z,1.98
2023-05-19T00:06:14.145Z,2.20
2023-05-19T00:07:26.360Z,2.03
2023-05-19T00:08:32.247Z,2.28
2023-05-19T00:09:35.340Z,2.08
2023-05-19T00:10:39.286Z,2.28
2023-05-19T00:11:42.371Z,1.95
2023-05-19T00:12:45.717Z,2.35
2023-05-19T00:13:49.950Z,2.45
2023-05-19T00:14:52.973Z,2.50
2023-05-19T00:15:56.494Z,2.05
2023-05-19T00:17:02.365Z,2.33
2023-05-19T00:18:05.337Z,2.10
2023-05-19T00:19:11.195Z,2.37
2023-05-19T00:20:14.587Z,2.70
2023-05-19T00:21:17.674Z,2.47
2023-05-19T00:22:20.658Z,2.05
2023-05-19T00:23:23.469Z,2.40
2023-05-19T00:24:26.470Z,2.12
2023-05-19T00:25:29.378Z,2.20
2023-05-19T00:26:32.272Z,2.37
2023-05-19T00:27:35.266Z,2.92
2023-05-19T00:28:38.380Z,2.87
2023-05-19T00:29:41.261Z,2.20
2023-05-19T00:30:44.244Z,2.37
2023-05-19T00:31:47.141Z,2.50
2023-05-19T00:32:50.304Z,2.20
2023-05-19T00:33:53.530Z,3.17
2023-05-19T00:34:56.370Z,2.70
2023-05-19T00:35:59.223Z,2.60
2023-05-19T00:37:02.220Z,2.80
2023-05-19T00:38:05.089Z,3.12
2023-05-19T00:39:08.066Z,3.10
2023-05-19T00:40:11.174Z,3.12
2023-05-19T00:41:14.511Z,2.78
2023-05-19T00:42:17.568Z,3.10
2023-05-19T00:43:20.432Z,2.85
2023-05-19T00:44:23.433Z,3.00
2023-05-19T00:45:26.286Z,2.90
2023-05-19T00:46:30.627Z,2.67
2023-05-19T00:47:33.745Z,2.95
2023-05-19T00:48:36.750Z,3.00
2023-05-19T00:49:39.672Z,2.50
2023-05-19T00:50:43.015Z,2.80
2023-05-19T00:51:46.399Z,2.87
2023-05-19T00:52:49.312Z,2.87
2023-05-19T00:53:52.670Z,2.90
2023-05-19T00:54:56.190Z,3.00
2023-05-19T00:56:00.959Z,2.53
2023-05-19T00:57:04.706Z,2.72
2023-05-19T00:58:11.116Z,2.80
2023-05-19T00:59:14.140Z,3.10
2023-05-19T01:00:17.504Z,2.83
2023-05-19T01:01:21.985Z,3.00
2023-05-19T01:02:25.027Z,2.87
2023-05-19T01:03:31.208Z,2.78
2023-05-19T01:04:38.162Z,2.92
2023-05-19T01:05:42.598Z,3.08
2023-05-19T01:06:47.013Z,2.70
2023-05-19T01:07:53.941Z,2.83
2023-05-19T01:08:57.676Z,2.95
2023-05-19T01:10:00.761Z,2.70
2023-05-19T01:11:08.390Z,2.92
2023-05-19T01:12:11.341Z,2.78
2023-05-19T01:13:14.763Z,3.17
2023-05-19T01:14:19.099Z,3.80
2023-05-19T01:15:23.054Z,3.78
2023-05-19T01:16:32.546Z,2.67
2023-05-19T01:18:08.726Z,2.80
2023-05-19T01:19:46.996Z,3.28
2023-05-19T01:20:59.766Z,3.05
2023-05-19T01:22:14.448Z,3.00
2023-05-19T01:24:04.078Z,2.95
2023-05-19T01:25:13.341Z,3.10
2023-05-19T01:26:34.897Z,3.03
2023-05-19T01:27:56.203Z,2.90
2023-05-19T01:29:17.185Z,3.10
2023-05-19T01:30:27.599Z,3.40
2023-05-19T01:31:31.643Z,3.03
2023-05-19T01:32:36.237Z,3.05
2023-05-19T01:33:43.200Z,3.60
2023-05-19T01:34:49.249Z,3.65
2023-05-19T01:35:54.419Z,3.50
2023-05-19T01:37:01.117Z,3.35
2023-05-19T01:38:08.455Z,3.78
2023-05-19T01:39:12.259Z,3.83
2023-05-19T01:40:15.840Z,3.33
2023-05-19T01:41:22.666Z,3.60
2023-05-19T01:42:27.881Z,3.47
2023-05-19T01:43:31.590Z,3.65
2023-05-19T01:44:34.661Z,3.25
2023-05-19T01:45:37.819Z,3.10
2023-05-19T01:46:41.783Z,3.85
2023-05-19T01:47:52.065Z,3.72
2023-05-19T01:48:56.223Z,3.20
2023-05-19T01:49:59.189Z,3.90
2023-05-19T01:51:02.364Z,3.85
2023-05-19T01:52:05.642Z,3.33
2023-05-19T01:53:08.925Z,3.47
2023-05-19T01:54:11.860Z,3.83
2023-05-19T01:55:14.828Z,3.55
2023-05-19T01:56:26.221Z,3.40
2023-05-19T01:57:32.592Z,3.97
2023-05-19T01:58:51.085Z,3.72
2023-05-19T01:59:56.974Z,3.90
2023-05-19T02:01:18.526Z,3.97
2023-05-19T02:02:31.477Z,3.72
2023-05-19T02:03:48.252Z,3.62
2023-05-19T02:05:06.754Z,3.83
2023-05-19T02:06:42.443Z,3.83
2023-05-19T02:07:52.899Z,3.78
2023-05-19T02:09:22.340Z,3.40
2023-05-19T02:10:32.836Z,4.07
2023-05-19T02:11:46.384Z,3.92
2023-05-19T02:12:53.539Z,3.53
2023-05-19T02:14:01.530Z,3.58
2023-05-19T02:15:08.106Z,4.00
2023-05-19T02:16:12.033Z,4.00
2023-05-19T02:17:16.534Z,3.60
2023-05-19T02:18:20.686Z,3.60
2023-05-19T02:19:40.326Z,3.60
2023-05-19T02:20:43.320Z,3.62
2023-05-19T02:21:46.178Z,2.97
2023-05-19T02:22:49.450Z,3.20
2023-05-19T02:23:52.412Z,2.97
2023-05-19T02:24:56.855Z,3.17
2023-05-19T02:25:59.759Z,3.03
2023-05-19T02:27:02.934Z,3.10
2023-05-19T02:28:06.989Z,3.72
2023-05-19T02:29:10.228Z,3.58
2023-05-19T02:30:13.267Z,4.37
2023-05-19T02:31:16.260Z,3.95
2023-05-19T02:32:19.668Z,3.60
2023-05-19T02:33:25.037Z,3.80
2023-05-19T02:34:27.920Z,4.15
2023-05-19T02:35:30.881Z,3.85
2023-05-19T02:36:37.108Z,3.87
2023-05-19T02:37:40.203Z,3.92
2023-05-19T02:38:43.175Z,3.92
2023-05-19T02:39:46.012Z,3.72
2023-05-19T02:40:48.985Z,3.95
2023-05-19T02:41:51.918Z,3.58
2023-05-19T02:42:54.932Z,4.25
2023-05-19T02:43:58.261Z,4.25
2023-05-19T02:45:01.174Z,3.97
2023-05-19T02:46:04.214Z,4.07
2023-05-19T02:47:07.262Z,4.20
2023-05-19T02:48:10.184Z,4.28
2023-05-19T02:49:13.311Z,3.87
2023-05-19T02:50:16.422Z,3.87
2023-05-19T02:51:19.529Z,4.10
2023-05-19T02:52:22.620Z,4.20
2023-05-19T02:53:25.839Z,3.60
2023-05-19T02:54:29.209Z,3.50
2023-05-19T02:55:32.141Z,3.80
2023-05-19T02:56:34.972Z,3.80
2023-05-19T02:57:38.870Z,4.30
2023-05-19T02:58:43.520Z,4.18
2023-05-19T02:59:46.422Z,4.53
2023-05-19T03:00:49.396Z,5.28
2023-05-19T03:01:55.882Z,4.53
2023-05-19T03:03:03.191Z,4.60
2023-05-19T03:04:06.195Z,4.57
2023-05-19T03:05:10.537Z,4.78
2023-05-19T03:06:14.438Z,4.45
2023-05-19T03:07:17.316Z,5.60
2023-05-19T03:08:20.772Z,5.57
2023-05-19T03:09:23.720Z,5.60
2023-05-19T03:10:26.715Z,5.15
2023-05-19T03:11:31.254Z,5.20
2023-05-19T03:12:34.316Z,5.78
2023-05-19T03:13:37.344Z,5.72
2023-05-19T03:14:40.446Z,6.75
2023-05-19T03:15:43.439Z,5.25
2023-05-19T03:16:46.363Z,6.18
2023-05-19T03:17:49.555Z,5.60
2023-05-19T03:18:52.696Z,5.22
2023-05-19T03:19:55.986Z,6.03
2023-05-19T03:20:59.128Z,5.50
2023-05-19T03:22:05.262Z,6.20
2023-05-19T03:23:09.291Z,5.47
2023-05-19T03:24:12.170Z,6.60
2023-05-19T03:25:15.133Z,6.40
2023-05-19T03:26:17.978Z,6.47
2023-05-19T03:27:20.912Z,6.35
2023-05-19T03:28:23.942Z,6.65
2023-05-19T03:29:26.901Z,5.78
2023-05-19T03:30:29.775Z,5.97
2023-05-19T03:31:32.815Z,6.30
2023-05-19T03:32:38.300Z,7.10
2023-05-19T03:33:41.378Z,6.55
2023-05-19T03:34:44.391Z,6.40
2023-05-19T03:35:47.365Z,7.12
2023-05-19T03:36:50.573Z,6.55
2023-05-19T03:37:53.564Z,7.10
2023-05-19T03:38:56.427Z,6.47
2023-05-19T03:40:00.085Z,6.37
2023-05-19T03:41:02.959Z,6.82
2023-05-19T03:42:06.140Z,6.45
2023-05-19T03:43:09.148Z,5.95
2023-05-19T03:44:12.222Z,7.68
2023-05-19T03:45:15.377Z,7.28
2023-05-19T03:46:18.334Z,6.50
2023-05-19T03:47:21.192Z,6.68
2023-05-19T03:48:24.304Z,7.22
2023-05-19T03:49:27.232Z,6.90
2023-05-19T03:50:32.190Z,6.62
2023-05-19T03:51:37.255Z,6.90
2023-05-19T03:52:40.541Z,7.62
2023-05-19T03:53:43.578Z,7.53
2023-05-19T03:54:46.385Z,8.05
2023-05-19T03:55:49.926Z,7.75
2023-05-19T03:56:52.751Z,7.62
2023-05-19T03:57:56.344Z,7.25
2023-05-19T03:58:59.757Z,7.35
2023-05-19T04:00:03.848Z,7.47
2023-05-19T04:01:07.021Z,7.65
2023-05-19T04:02:10.026Z,7.90
2023-05-19T04:03:13.116Z,7.87
2023-05-19T04:04:16.196Z,7.87
2023-05-19T04:05:19.193Z,8.32
2023-05-19T04:06:22.363Z,8.02
2023-05-19T04:07:25.191Z,8.25
2023-05-19T04:08:28.106Z,8.93
2023-05-19T04:09:32.736Z,7.28
2023-05-19T04:10:35.592Z,8.10
2023-05-19T04:11:39.935Z,8.02
2023-05-19T04:12:42.880Z,7.57
2023-05-19T04:13:46.212Z,7.43
2023-05-19T04:14:49.109Z,7.37
2023-05-19T04:15:52.359Z,8.07
2023-05-19T04:16:55.983Z,7.35
2023-05-19T04:17:58.917Z,7.82
2023-05-19T04:19:02.018Z,7.50
2023-05-19T04:20:08.168Z,7.25
2023-05-19T04:21:11.174Z,8.55
2023-05-19T04:22:14.146Z,7.95
2023-05-19T04:23:17.080Z,8.32
2023-05-19T04:24:20.048Z,7.97
2023-05-19T04:25:25.523Z,7.45
2023-05-19T04:26:31.247Z,7.35
2023-05-19T04:27:37.096Z,7.87
2023-05-19T04:28:42.847Z,8.02
2023-05-19T04:29:48.525Z,8.10
2023-05-19T04:30:51.962Z,8.23
2023-05-19T04:31:55.487Z,8.25
2023-05-19T04:32:59.499Z,7.70
2023-05-19T04:34:02.372Z,9.10
2023-05-19T04:35:06.020Z,9.18
2023-05-19T04:36:10.829Z,8.32
2023-05-19T04:37:14.477Z,10.35
2023-05-19T04:38:19.220Z,9.82
2023-05-19T04:39:22.217Z,9.60
2023-05-19T04:40:25.034Z,10.00
2023-05-19T04:41:28.032Z,8.98
2023-05-19T04:42:33.590Z,10.23
2023-05-19T04:43:37.026Z,10.00
2023-05-19T04:44:40.413Z,9.70
2023-05-19T04:45:43.392Z,10.90
2023-05-19T04:46:46.404Z,10.13
2023-05-19T04:47:49.560Z,9.55
2023-05-19T04:48:53.553Z,10.90
2023-05-19T04:50:01.119Z,10.13
2023-05-19T04:51:04.236Z,10.23
2023-05-19T04:52:12.038Z,9.25
2023-05-19T04:53:15.720Z,9.70
2023-05-19T04:54:18.811Z,9.40
2023-05-19T04:55:21.644Z,8.77
2023-05-19T04:56:24.652Z,9.32
2023-05-19T04:57:27.467Z,8.60
2023-05-19T04:58:30.829Z,8.63
2023-05-19T04:59:33.941Z,8.73
2023-05-19T05:00:39.542Z,7.62
2023-05-19T05:01:43.516Z,7.80
2023-05-19T05:02:46.632Z,7.75
2023-05-19T05:03:49.680Z,7.62
2023-05-19T05:04:54.736Z,7.62
2023-05-19T05:05:58.895Z,8.20
2023-05-19T05:07:02.203Z,7.45
2023-05-19T05:08:05.158Z,7.78
2023-05-19T05:09:08.123Z,8.10
2023-05-19T05:10:11.193Z,7.28
2023-05-19T05:11:14.340Z,8.00
2023-05-19T05:12:18.909Z,7.87
2023-05-19T05:13:23.577Z,7.35
2023-05-19T05:14:27.283Z,7.55
2023-05-19T05:15:30.610Z,7.57
2023-05-19T05:16:34.471Z,7.85
2023-05-19T05:17:37.964Z,7.50
2023-05-19T05:18:43.469Z,7.62
2023-05-19T05:19:48.892Z,6.87
2023-05-19T05:20:52.004Z,6.55
2023-05-19T05:21:55.243Z,6.85
2023-05-19T05:22:58.393Z,6.68
2023-05-19T05:24:01.807Z,7.30
2023-05-19T05:25:05.489Z,6.97
2023-05-19T05:26:17.528Z,6.35
2023-05-19T05:27:20.493Z,7.05
2023-05-19T05:28:23.701Z,6.50
2023-05-19T05:29:27.454Z,6.80
2023-05-19T05:30:30.523Z,6.70
2023-05-19T05:31:33.659Z,7.10
2023-05-19T05:32:36.755Z,6.90
2023-05-19T05:33:39.952Z,6.40
2023-05-19T05:34:43.503Z,6.10
2023-05-19T05:35:47.161Z,5.97
2023-05-19T05:36:50.222Z,6.10
2023-05-19T05:37:53.063Z,6.65
2023-05-19T05:38:56.165Z,6.35
2023-05-19T05:39:59.188Z,6.62
2023-05-19T05:41:03.395Z,6.12
2023-05-19T05:42:06.656Z,6.57
2023-05-19T05:43:09.633Z,6.25
2023-05-19T05:44:12.719Z,6.95
2023-05-19T05:45:15.676Z,5.93
2023-05-19T05:46:18.723Z,6.32
2023-05-19T05:47:21.837Z,6.68
2023-05-19T05:48:25.043Z,6.12
2023-05-19T05:49:28.169Z,6.30
2023-05-19T05:50:31.357Z,6.43
2023-05-19T05:51:34.666Z,5.95
2023-05-19T05:52:38.565Z,6.68
2023-05-19T05:53:45.054Z,6.62
2023-05-19T05:54:48.344Z,5.68
2023-05-19T05:55:51.889Z,6.43
2023-05-19T05:56:55.096Z,6.22
2023-05-19T05:57:58.904Z,6.60
2023-05-19T05:59:03.120Z,5.95
2023-05-19T06:00:08.527Z,6.18
2023-05-19T06:01:11.786Z,6.18
2023-05-19T06:02:14.774Z,6.22
2023-05-19T06:03:17.773Z,5.90
2023-05-19T06:04:21.422Z,6.43
2023-05-19T06:05:25.438Z,6.00
2023-05-19T06:06:28.541Z,6.50
2023-05-19T06:07:31.427Z,6.20
2023-05-19T06:08:34.487Z,6.68
2023-05-19T06:09:37.491Z,6.30
2023-05-19T06:10:42.074Z,5.85
2023-05-19T06:11:45.021Z,6.32
2023-05-19T06:12:48.387Z,6.30
2023-05-19T06:13:51.417Z,6.20
2023-05-19T06:14:54.259Z,6.12
2023-05-19T06:15:57.353Z,6.07
2023-05-19T06:17:01.611Z,5.47
2023-05-19T06:18:04.691Z,5.37
2023-05-19T06:19:07.724Z,5.05
2023-05-19T06:20:11.586Z,5.18
2023-05-19T06:21:14.881Z,5.03
2023-05-19T06:22:17.922Z,5.00
2023-05-19T06:23:20.997Z,5.40
2023-05-19T06:24:24.057Z,6.00
2023-05-19T06:25:26.995Z,5.55
2023-05-19T06:26:30.006Z,5.60
2023-05-19T06:27:34.760Z,6.03
2023-05-19T06:28:37.854Z,5.80
2023-05-19T06:29:40.858Z,5.47
2023-05-19T06:30:43.817Z,5.72
2023-05-19T06:31:47.113Z,5.47
2023-05-19T06:32:50.327Z,5.72
2023-05-19T06:33:54.052Z,6.10
2023-05-19T06:34:57.008Z,6.70
2023-05-19T06:36:00.132Z,5.85
2023-05-19T06:37:03.901Z,6.50
2023-05-19T06:38:07.058Z,5.47
2023-05-19T06:39:09.886Z,6.18
2023-05-19T06:40:13.358Z,5.95
2023-05-19T06:41:16.289Z,6.10
2023-05-19T06:42:22.923Z,5.57
2023-05-19T06:43:25.984Z,5.90
2023-05-19T06:44:28.884Z,5.75
2023-05-19T06:45:32.091Z,5.90
2023-05-19T06:46:35.241Z,5.07
2023-05-19T06:47:38.330Z,5.12
2023-05-19T06:48:41.377Z,4.97
2023-05-19T06:49:45.591Z,4.82
2023-05-19T06:50:48.572Z,5.00
2023-05-19T06:51:51.544Z,4.37
2023-05-19T06:52:54.690Z,4.32
2023-05-19T06:53:57.901Z,4.87
2023-05-19T06:55:00.838Z,4.07
2023-05-19T06:56:03.912Z,3.97
2023-05-19T06:57:06.753Z,3.72
2023-05-19T06:58:09.729Z,4.10
2023-05-19T06:59:12.655Z,4.20
2023-05-19T07:00:31.778Z,4.28
2023-05-19T07:01:35.021Z,4.37
2023-05-19T07:02:38.144Z,3.90
2023-05-19T07:03:41.313Z,4.40
2023-05-19T07:04:44.338Z,3.87
2023-05-19T07:05:47.671Z,4.30
2023-05-19T07:06:50.620Z,3.97
2023-05-19T07:07:53.636Z,3.37
2023-05-19T07:08:56.887Z,3.35
2023-05-19T07:10:00.313Z,3.30
2023-05-19T07:11:03.314Z,3.65
2023-05-19T07:12:06.615Z,3.33
2023-05-19T07:13:09.538Z,3.35
2023-05-19T07:14:12.434Z,3.60
2023-05-19T07:15:15.308Z,2.80
2023-05-19T07:16:18.107Z,3.53
2023-05-19T07:17:21.137Z,3.00
2023-05-19T07:18:24.059Z,3.22
2023-05-19T07:19:27.181Z,2.92
2023-05-19T07:20:30.342Z,2.70
2023-05-19T07:21:33.373Z,2.60
2023-05-19T07:22:37.134Z,2.70
2023-05-19T07:23:39.955Z,2.22
2023-05-19T07:24:43.050Z,2.30
2023-05-19T07:25:45.878Z,2.35
2023-05-19T07:26:48.973Z,2.40
2023-05-19T07:27:51.888Z,2.40
2023-05-19T07:28:54.713Z,2.20
2023-05-19T07:29:59.180Z,2.60
2023-05-19T07:31:02.645Z,2.70
2023-05-19T07:32:06.082Z,2.50
2023-05-19T07:33:08.958Z,2.40
2023-05-19T07:34:11.972Z,2.70
2023-05-19T07:35:14.855Z,2.33
2023-05-19T07:36:17.818Z,2.40
2023-05-19T07:37:20.793Z,2.72
2023-05-19T07:38:23.669Z,2.35
2023-05-19T07:39:29.971Z,2.50
2023-05-19T07:40:33.049Z,2.80
2023-05-19T07:41:36.516Z,2.45
2023-05-19T07:42:39.543Z,2.47
2023-05-19T07:43:43.134Z,2.47
2023-05-19T07:44:46.104Z,2.80
2023-05-19T07:45:48.933Z,2.53
2023-05-19T07:46:51.879Z,2.50
2023-05-19T07:47:54.938Z,2.58
2023-05-19T07:48:57.850Z,2.78
2023-05-19T07:50:00.954Z,3.00
2023-05-19T07:51:04.392Z,2.53
2023-05-19T07:52:07.641Z,2.75
2023-05-19T07:53:10.458Z,2.72
2023-05-19T07:54:13.376Z,2.85
2023-05-19T07:55:17.569Z,2.62
2023-05-19T07:56:20.614Z,2.75
2023-05-19T07:57:23.755Z,3.22
2023-05-19T07:58:27.004Z,2.83
2023-05-19T07:59:30.057Z,2.55
2023-05-19T08:00:33.580Z,2.80
2023-05-19T08:01:36.769Z,2.90
2023-05-19T08:02:39.841Z,2.50
2023-05-19T08:03:42.782Z,2.80
2023-05-19T08:04:46.134Z,2.70
2023-05-19T08:05:49.083Z,3.17
2023-05-19T08:06:53.254Z,3.05
2023-05-19T08:07:57.661Z,3.00
2023-05-19T08:09:00.610Z,2.72
2023-05-19T08:10:04.267Z,2.92
2023-05-19T08:11:07.285Z,2.72
2023-05-19T08:12:10.130Z,3.03
2023-05-19T08:13:13.048Z,2.95
2023-05-19T08:14:16.467Z,2.75
2023-05-19T08:15:19.860Z,2.60
2023-05-19T08:16:23.123Z,2.83
2023-05-19T08:17:26.216Z,2.90
2023-05-19T08:18:29.651Z,2.62
2023-05-19T08:19:32.568Z,2.92
2023-05-19T08:20:35.576Z,3.20
2023-05-19T08:21:38.655Z,3.20
2023-05-19T08:22:41.605Z,3.10
2023-05-19T08:23:44.890Z,3.55
2023-05-19T08:24:50.240Z,3.20
2023-05-19T08:25:53.209Z,2.87
2023-05-19T08:26:56.256Z,3.33
2023-05-19T08:27:59.223Z,3.30
2023-05-19T08:29:02.187Z,3.12
2023-05-19T08:30:05.462Z,2.85
2023-05-19T08:31:11.126Z,3.55
2023-05-19T08:32:14.064Z,3.30
2023-05-19T08:33:17.736Z,3.40
2023-05-19T08:34:21.005Z,3.50
2023-05-19T08:35:24.049Z,3.30
2023-05-19T08:36:26.949Z,3.05
2023-05-19T08:37:31.463Z,2.87
2023-05-19T08:38:35.736Z,2.97
2023-05-19T08:39:38.633Z,3.30
2023-05-19T08:40:48.020Z,3.28
2023-05-19T08:41:50.962Z,3.35
2023-05-19T08:42:54.625Z,3.30
2023-05-19T08:43:57.581Z,2.80
2023-05-19T08:45:02.050Z,2.87
2023-05-19T08:46:06.592Z,2.85
2023-05-19T08:47:14.080Z,2.97
2023-05-19T08:48:19.500Z,2.70
2023-05-19T08:49:31.220Z,2.80
2023-05-19T08:50:39.525Z,2.87
2023-05-19T08:52:00.889Z,3.10
2023-05-19T08:53:25.014Z,2.70
2023-05-19T08:55:09.953Z,3.28
2023-05-19T08:56:18.435Z,2.92
2023-05-19T08:57:23.993Z,2.33
2023-05-19T08:58:28.900Z,2.20
2023-05-19T08:59:32.414Z,2.65
2023-05-19T09:00:36.291Z,2.62
2023-05-19T09:01:40.189Z,2.53
2023-05-19T09:02:55.041Z,2.50
2023-05-19T09:04:04.638Z,2.78
2023-05-19T09:05:08.075Z,2.97
2023-05-19T09:06:14.567Z,2.37
2023-05-19T09:07:19.136Z,2.28
2023-05-19T09:08:22.825Z,2.97
2023-05-19T09:09:25.935Z,2.60
2023-05-19T09:10:29.368Z,2.53
2023-05-19T09:11:33.164Z,2.50
2023-05-19T09:12:36.166Z,2.45
2023-05-19T09:13:39.386Z,2.25
2023-05-19T09:14:42.529Z,2.53
2023-05-19T09:15:46.415Z,2.35
2023-05-19T09:16:52.698Z,2.40
2023-05-19T09:18:15.461Z,2.53
2023-05-19T09:19:18.753Z,2.60
2023-05-19T09:20:21.623Z,2.70
2023-05-19T09:21:33.674Z,2.78
2023-05-19T09:22:42.088Z,3.30
2023-05-19T09:23:47.626Z,2.47
2023-05-19T09:24:50.551Z,2.30
2023-05-19T09:25:54.207Z,2.28
2023-05-19T09:26:58.449Z,2.53
2023-05-19T09:28:03.006Z,2.17
2023-05-19T09:29:17.111Z,2.47
2023-05-19T09:30:20.474Z,2.72
2023-05-19T09:31:23.803Z,2.50
2023-05-19T09:32:27.959Z,2.20
2023-05-19T09:33:33.628Z,2.60
2023-05-19T09:34:42.139Z,2.42
2023-05-19T09:35:47.618Z,2.00
2023-05-19T09:36:52.083Z,3.10
2023-05-19T09:37:55.456Z,2.60
2023-05-19T09:38:58.321Z,2.50
2023-05-19T09:40:01.288Z,2.60
2023-05-19T09:41:05.669Z,2.60
2023-05-19T09:42:08.575Z,2.87
2023-05-19T09:43:12.096Z,3.22
2023-05-19T09:44:21.479Z,2.95
2023-05-19T09:45:27.510Z,3.03
2023-05-19T09:46:30.507Z,2.60
2023-05-19T09:47:36.406Z,2.95
2023-05-19T09:48:39.439Z,2.62
2023-05-19T09:49:47.720Z,2.70
2023-05-19T09:50:51.943Z,2.90
2023-05-19T09:51:57.674Z,2.70
2023-05-19T09:53:01.077Z,2.70
2023-05-19T09:54:04.984Z,2.60
2023-05-19T09:55:11.921Z,2.90
2023-05-19T09:56:15.364Z,2.47
2023-05-19T09:57:18.730Z,2.60
2023-05-19T09:58:22.216Z,3.00
2023-05-19T09:59:26.388Z,3.17
2023-05-19T10:00:31.620Z,2.78
2023-05-19T10:01:41.332Z,3.20
2023-05-19T10:02:49.256Z,3.30
2023-05-19T10:03:53.871Z,2.60
2023-05-19T10:04:56.913Z,2.90
2023-05-19T10:06:01.638Z,3.58
2023-05-19T10:07:06.500Z,3.08
2023-05-19T10:08:10.694Z,3.60
2023-05-19T10:09:14.207Z,3.72
2023-05-19T10:10:17.854Z,3.37
2023-05-19T10:11:23.405Z,3.47
2023-05-19T10:12:27.159Z,3.50
2023-05-19T10:13:31.206Z,3.22
2023-05-19T10:14:34.364Z,3.80
2023-05-19T10:15:53.703Z,3.20
2023-05-19T10:17:00.044Z,3.17
2023-05-19T10:18:03.944Z,2.75
2023-05-19T10:19:09.408Z,2.90
2023-05-19T10:20:17.339Z,2.80
2023-05-19T10:21:20.334Z,2.75
2023-05-19T10:22:23.251Z,2.75
2023-05-19T10:23:26.982Z,2.80
2023-05-19T10:24:29.918Z,3.60
2023-05-19T10:25:34.710Z,3.22
2023-05-19T10:26:41.446Z,3.50
2023-05-19T10:28:14.527Z,2.83
2023-05-19T10:29:22.671Z,2.90
2023-05-19T10:30:30.332Z,3.33
2023-05-19T10:31:36.195Z,2.90
2023-05-19T10:32:42.082Z,3.00
2023-05-19T10:33:59.780Z,2.90
2023-05-19T10:35:40.032Z,3.00
2023-05-19T10:36:50.087Z,2.75
2023-05-19T10:37:55.473Z,3.00
2023-05-19T10:39:08.625Z,3.25
2023-05-19T10:40:39.285Z,3.05
2023-05-19T10:41:52.286Z,3.62
2023-05-19T10:43:18.302Z,2.95
2023-05-19T10:44:49.983Z,3.40
2023-05-19T10:45:55.212Z,3.15
2023-05-19T10:46:58.177Z,3.20
2023-05-19T10:48:01.359Z,3.22
2023-05-19T10:49:04.342Z,3.00
2023-05-19T10:50:08.427Z,3.00
2023-05-19T10:51:12.485Z,3.30
2023-05-19T10:52:30.523Z,3.05
2023-05-19T10:53:35.137Z,3.20
2023-05-19T10:54:43.735Z,3.28
2023-05-19T10:55:56.746Z,3.10
2023-05-19T10:56:59.654Z,2.85
2023-05-19T10:58:02.512Z,3.42
2023-05-19T10:59:05.451Z,3.10
2023-05-19T11:00:29.731Z,3.25
2023-05-19T11:01:38.498Z,3.10
2023-05-19T11:02:44.256Z,3.72
2023-05-19T11:03:53.524Z,2.87
2023-05-19T11:05:09.574Z,3.33
2023-05-19T11:06:19.451Z,2.90
2023-05-19T11:07:22.690Z,3.78
2023-05-19T11:08:33.856Z,3.47
2023-05-19T11:09:43.262Z,3.15
2023-05-19T11:10:46.508Z,3.17
2023-05-19T11:11:52.923Z,3.85
2023-05-19T11:12:58.229Z,3.55
2023-05-19T11:14:01.520Z,3.47
2023-05-19T11:15:04.934Z,3.20
2023-05-19T11:16:09.520Z,3.50
2023-05-19T11:17:16.548Z,3.60
2023-05-19T11:18:20.044Z,3.87
2023-05-19T11:19:27.692Z,3.60
2023-05-19T11:20:35.056Z,3.62
2023-05-19T11:21:52.738Z,4.03
2023-05-19T11:23:14.898Z,3.20
2023-05-19T11:24:37.524Z,3.08
2023-05-19T11:25:51.191Z,3.55
2023-05-19T11:26:55.107Z,3.50
2023-05-19T11:27:58.871Z,3.65
2023-05-19T11:29:02.532Z,3.40
2023-05-19T11:30:14.907Z,3.30
2023-05-19T11:31:19.650Z,3.83
2023-05-19T11:32:26.640Z,3.45
2023-05-19T11:33:30.391Z,3.00
2023-05-19T11:34:35.992Z,3.78
2023-05-19T11:35:39.126Z,3.67
2023-05-19T11:36:45.617Z,3.87
2023-05-19T11:37:50.892Z,3.40
2023-05-19T11:38:53.986Z,3.45
2023-05-19T11:39:56.831Z,3.30
2023-05-19T11:41:01.203Z,3.42
2023-05-19T11:42:04.511Z,3.75
2023-05-19T11:43:07.581Z,3.60
2023-05-19T11:44:12.239Z,3.92
2023-05-19T11:45:15.112Z,4.00
2023-05-19T11:46:18.530Z,3.92
2023-05-19T11:47:21.725Z,3.78
2023-05-19T11:48:26.735Z,3.10
2023-05-19T11:49:29.841Z,3.70
2023-05-19T11:50:33.561Z,3.78
2023-05-19T11:51:36.797Z,4.20
2023-05-19T11:52:46.033Z,3.47
2023-05-19T11:53:50.351Z,3.72
2023-05-19T11:54:53.723Z,3.42
2023-05-19T11:55:56.712Z,3.67
2023-05-19T11:57:06.245Z,3.50
2023-05-19T11:58:09.166Z,3.30
2023-05-19T11:59:12.313Z,3.35
2023-05-19T12:00:15.626Z,3.40
2023-05-19T12:01:18.716Z,2.97
2023-05-19T12:02:25.722Z,3.10
2023-05-19T12:03:30.012Z,3.40
2023-05-19T12:04:33.000Z,3.10
2023-05-19T12:05:46.528Z,3.12
2023-05-19T12:06:50.324Z,3.05
2023-05-19T12:07:53.926Z,2.95
2023-05-19T12:08:57.078Z,3.17
2023-05-19T12:10:00.416Z,3.35
2023-05-19T12:11:03.588Z,2.90
2023-05-19T12:12:06.715Z,3.60
2023-05-19T12:13:10.512Z,3.40
2023-05-19T12:14:13.830Z,3.50
2023-05-19T12:15:21.216Z,3.30
2023-05-19T12:16:24.256Z,2.97
2023-05-19T12:17:27.182Z,3.30
2023-05-19T12:18:32.252Z,2.80
2023-05-19T12:19:35.504Z,3.37
2023-05-19T12:20:38.447Z,3.00
2023-05-19T12:21:41.707Z,3.20
2023-05-19T12:22:45.204Z,3.55
2023-05-19T12:23:48.274Z,3.20
2023-05-19T12:24:51.577Z,3.33
2023-05-19T12:25:54.660Z,3.15
2023-05-19T12:27:21.297Z,3.17
2023-05-19T12:28:24.337Z,3.58
2023-05-19T12:29:29.471Z,3.53
2023-05-19T12:30:33.581Z,3.55
2023-05-19T12:31:38.273Z,3.67
2023-05-19T12:32:41.639Z,3.15
2023-05-19T12:33:46.151Z,3.15
2023-05-19T12:34:50.196Z,3.12
2023-05-19T12:35:54.826Z,2.92
2023-05-19T12:36:57.778Z,3.20
2023-05-19T12:38:07.531Z,2.95
2023-05-19T12:39:10.944Z,2.85
2023-05-19T12:40:17.151Z,3.20
2023-05-19T12:41:20.330Z,3.28
2023-05-19T12:42:24.017Z,3.22
2023-05-19T12:43:27.136Z,3.58
2023-05-19T12:44:31.664Z,3.08
2023-05-19T12:45:39.004Z,3.33
2023-05-19T12:46:42.074Z,3.50
2023-05-19T12:47:48.760Z,3.10
2023-05-19T12:48:52.015Z,3.40
2023-05-19T12:50:09.050Z,2.65
2023-05-19T12:51:21.217Z,3.20
2023-05-19T12:52:25.160Z,2.90
2023-05-19T12:53:28.524Z,3.00
2023-05-19T12:54:34.773Z,3.92
2023-05-19T12:55:46.479Z,3.08
2023-05-19T12:56:51.588Z,3.00
2023-05-19T12:57:58.529Z,3.50
2023-05-19T12:59:02.289Z,4.25
2023-05-19T13:00:11.051Z,3.60
2023-05-19T13:01:18.136Z,3.50
2023-05-19T13:02:21.530Z,3.70
2023-05-19T13:03:24.655Z,3.50
2023-05-19T13:04:28.657Z,3.08
2023-05-19T13:05:38.230Z,3.47
2023-05-19T13:06:42.113Z,3.40
2023-05-19T13:07:57.555Z,3.75
2023-05-19T13:09:00.433Z,3.50
2023-05-19T13:10:04.153Z,3.58
2023-05-19T13:11:07.185Z,2.70
2023-05-19T13:12:10.248Z,2.92
2023-05-19T13:13:13.825Z,3.10
2023-05-19T13:14:18.977Z,3.10
2023-05-19T13:15:27.176Z,3.12
2023-05-19T13:16:30.351Z,3.40
2023-05-19T13:17:35.167Z,2.85
2023-05-19T13:18:38.623Z,2.75
2023-05-19T13:19:41.663Z,2.90
2023-05-19T13:20:45.733Z,3.03
2023-05-19T13:21:50.070Z,3.30
2023-05-19T13:22:53.716Z,3.22
2023-05-19T13:23:56.633Z,3.05
2023-05-19T13:25:00.119Z,3.30
2023-05-19T13:26:05.265Z,3.00
2023-05-19T13:27:08.503Z,3.00
2023-05-19T13:28:12.494Z,2.92
2023-05-19T13:29:15.510Z,3.15
2023-05-19T13:30:19.536Z,3.55
2023-05-19T13:31:22.502Z,3.37
2023-05-19T13:32:25.685Z,2.90
2023-05-19T13:33:28.656Z,3.20
2023-05-19T13:34:31.515Z,3.10
2023-05-19T13:35:38.196Z,3.40
2023-05-19T13:36:43.012Z,3.10
2023-05-19T13:37:46.610Z,2.80
2023-05-19T13:38:49.432Z,2.85
2023-05-19T13:39:52.568Z,3.12
2023-05-19T13:40:55.657Z,2.97
2023-05-19T13:41:58.878Z,2.95
2023-05-19T13:43:06.238Z,3.28
2023-05-19T13:44:09.165Z,3.05
2023-05-19T13:45:12.335Z,2.87
2023-05-19T13:46:15.337Z,3.08
2023-05-19T13:47:18.376Z,3.40
2023-05-19T13:48:21.442Z,2.60
2023-05-19T13:49:24.985Z,3.12
2023-05-19T13:50:27.946Z,3.20
2023-05-19T13:51:30.883Z,2.92
2023-05-19T13:52:33.964Z,2.80
2023-05-19T13:53:37.018Z,2.83
2023-05-19T13:54:39.918Z,2.70
2023-05-19T13:55:42.916Z,3.00
2023-05-19T13:56:49.079Z,2.90
2023-05-19T13:57:52.299Z,2.87
2023-05-19T13:58:55.672Z,3.05
2023-05-19T14:00:03.222Z,2.70
2023-05-19T14:01:07.529Z,3.15
2023-05-19T14:02:10.903Z,2.97
2023-05-19T14:03:16.428Z,3.10
2023-05-19T14:04:19.688Z,3.10
2023-05-19T14:05:22.927Z,2.92
2023-05-19T14:06:25.771Z,2.87
2023-05-19T14:07:28.642Z,2.62
2023-05-19T14:08:31.595Z,3.12
2023-05-19T14:09:34.660Z,2.78
2023-05-19T14:10:37.528Z,2.67
2023-05-19T14:11:40.500Z,2.92
2023-05-19T14:13:07.965Z,3.20
2023-05-19T14:14:06.710Z,2.72
2023-05-19T14:15:11.479Z,2.62
2023-05-19T14:16:14.636Z,2.87
2023-05-19T14:17:17.676Z,2.87
2023-05-19T14:18:20.780Z,2.87
2023-05-19T14:19:24.434Z,2.60
2023-05-19T14:20:29.186Z,2.70
2023-05-19T14:21:32.873Z,2.67
2023-05-19T14:22:35.843Z,2.65
2023-05-19T14:23:38.752Z,2.70
2023-05-19T14:24:42.110Z,2.78
2023-05-19T14:25:45.100Z,3.12
2023-05-19T14:26:48.002Z,2.80